Talmage, Iowa
Current Conditions -  °F | °C
As of 7:15 PM on Thursday 18 Dec 2014 (Local Time) from KCSQ Reporting Station
Overcast Overcast  
Wind Chill: 23°   Ceiling: 900
Heat Index: 28°   Visibility: 10mi
Dew Point: 28°   Wind: 5mph
Humidity: 100%   Direction: 100°E
Pressure: 30.23"   Gusts: NA
Location:  40.9825°N, 94.0723°W
Report Text: KCSQ 190115Z AUTO 10004KT 10SM OVC009 M02/M02 A3023 RMK AO2
Loading
Personal Weather Stations






























Interactive Weather Map New forecast layout! Learn more

10-Day Weather Forecast

Advertisements
Track Severe Weather on mobile